Time;durP1;ratioP1;P1;durP2;ratioP2;P2;SDS_P1;SDS_P2;PMS_P1;PMS_P2;Temp;Humidity;BMP_temperature;BMP_pressure;BME280_temperature;BME280_humidity;BME280_pressure;Samples;Min_cycle;Max_cycle;Signal;HPM_P1;HPM_P2
2024/04/21 00:02:25;;;;;;;3.75;3.55;;;;;;;;;;5568003;25;20678;-80
2024/04/21 00:04:51;;;;;;;4.53;4.17;;;;;;;;;;5552155;25;20398;-80
2024/04/21 00:07:17;;;;;;;4.38;4.07;;;;;;;;;;5567765;25;20325;-80
2024/04/21 00:09:43;;;;;;;4.40;4.00;;;;;;;;;;5569098;25;20337;-80
2024/04/21 00:12:09;;;;;;;3.80;3.50;;;;;;;;;;5569359;25;20797;-80
2024/04/21 00:14:35;;;;;;;4.30;3.90;;;;;;;;;;5551331;25;20368;-80
2024/04/21 00:17:01;;;;;;;3.60;3.40;;;;;;;;;;5534071;26;20417;-80
2024/04/21 00:19:27;;;;;;;3.42;3.22;;;;;;;;;;5532475;26;20331;-80
2024/04/21 00:21:53;;;;;;;4.30;3.92;;;;;;;;;;5531961;26;20324;-80
2024/04/21 00:24:19;;;;;;;4.20;3.90;;;;;;;;;;5531971;26;20452;-80
2024/04/21 00:26:45;;;;;;;4.57;4.18;;;;;;;;;;5533458;26;20320;-80
2024/04/21 00:29:11;;;;;;;4.80;4.50;;;;;;;;;;5533473;26;20327;-81
2024/04/21 00:31:38;;;;;;;5.10;4.70;;;;;;;;;;5533970;26;20320;-81
2024/04/21 00:34:04;;;;;;;5.25;4.85;;;;;;;;;;5534531;26;20401;-81
2024/04/21 00:36:30;;;;;;;5.65;5.20;;;;;;;;;;5534221;26;20323;-81
2024/04/21 00:38:56;;;;;;;5.63;5.13;;;;;;;;;;5533834;26;20331;-81
2024/04/21 00:41:23;;;;;;;5.47;5.07;;;;;;;;;;5531186;26;20356;-81
2024/04/21 00:43:49;;;;;;;5.72;5.30;;;;;;;;;;5535064;26;20308;-81
2024/04/21 00:46:15;;;;;;;5.75;5.25;;;;;;;;;;5536208;26;20331;-81
2024/04/21 00:48:41;;;;;;;5.65;5.25;;;;;;;;;;5534376;26;20363;-81
2024/04/21 00:51:08;;;;;;;5.90;5.50;;;;;;;;;;5534046;26;20393;-81
2024/04/21 00:53:34;;;;;;;6.07;5.68;;;;;;;;;;5535937;26;20340;-81
2024/04/21 00:56:00;;;;;;;5.80;5.40;;;;;;;;;;5535306;26;20352;-81
2024/04/21 00:58:26;;;;;;;5.70;5.30;;;;;;;;;;5499747;26;20737;-81
2024/04/21 01:00:52;;;;;;;6.35;5.95;;;;;;;;;;5528118;26;20308;-81
2024/04/21 01:03:18;;;;;;;6.10;5.70;;;;;;;;;;5530490;26;20409;-81
2024/04/21 01:05:44;;;;;;;7.03;6.43;;;;;;;;;;5532959;26;20320;-81
2024/04/21 01:08:10;;;;;;;7.10;6.50;;;;;;;;;;5533628;26;20328;-81
2024/04/21 01:10:36;;;;;;;7.22;6.65;;;;;;;;;;5536226;26;20363;-81
2024/04/21 01:13:09;;;;;;;7.00;6.50;;;;;;;;;;5534652;26;20680;-81
2024/04/21 01:15:35;;;;;;;6.68;6.18;;;;;;;;;;5555228;25;20328;-81
2024/04/21 01:18:04;;;;;;;6.35;5.90;;;;;;;;;;5572301;25;20936;-81
2024/04/21 01:20:30;;;;;;;6.90;6.40;;;;;;;;;;5572028;25;20317;-81
2024/04/21 01:22:56;;;;;;;6.33;5.93;;;;;;;;;;5572533;25;20543;-81
2024/04/21 01:25:22;;;;;;;6.75;6.32;;;;;;;;;;5572136;25;20325;-81
2024/04/21 01:27:48;;;;;;;7.47;6.88;;;;;;;;;;5572147;25;20857;-81
2024/04/21 01:30:14;;;;;;;6.83;6.33;;;;;;;;;;5571933;25;20410;-81
2024/04/21 01:32:40;;;;;;;7.45;6.90;;;;;;;;;;5572413;25;20313;-81
2024/04/21 01:35:06;;;;;;;7.22;6.72;;;;;;;;;;5572603;25;20317;-81
2024/04/21 01:37:32;;;;;;;8.20;7.47;;;;;;;;;;5572125;25;20389;-81
2024/04/21 01:39:58;;;;;;;8.85;8.15;;;;;;;;;;5571982;25;20321;-81
2024/04/21 01:42:24;;;;;;;8.38;7.78;;;;;;;;;;5572569;25;20349;-81
2024/04/21 01:44:50;;;;;;;8.38;7.78;;;;;;;;;;5572560;25;20357;-81
2024/04/21 01:47:16;;;;;;;7.63;7.03;;;;;;;;;;5571615;25;20317;-81
2024/04/21 01:49:42;;;;;;;7.10;6.50;;;;;;;;;;5572082;25;20360;-81
2024/04/21 01:52:08;;;;;;;7.53;6.93;;;;;;;;;;5571159;25;20418;-81
2024/04/21 01:54:34;;;;;;;7.00;6.50;;;;;;;;;;5571947;25;20403;-81
2024/04/21 01:57:00;;;;;;;6.93;6.43;;;;;;;;;;5566200;25;20316;-81
2024/04/21 01:59:26;;;;;;;6.10;5.65;;;;;;;;;;5533973;26;20324;-81
2024/04/21 02:01:52;;;;;;;5.75;5.35;;;;;;;;;;5534350;26;20364;-81
2024/04/21 02:04:18;;;;;;;6.15;5.65;;;;;;;;;;5533474;26;20323;-81
2024/04/21 02:06:44;;;;;;;5.80;5.40;;;;;;;;;;5533940;26;20328;-81
2024/04/21 02:09:09;;;;;;;5.40;5.10;;;;;;;;;;5533315;26;20845;-81
2024/04/21 02:11:35;;;;;;;5.85;5.45;;;;;;;;;;5533314;26;20323;-81
2024/04/21 02:14:01;;;;;;;5.30;4.90;;;;;;;;;;5533874;26;20332;-81
2024/04/21 02:16:27;;;;;;;5.20;4.90;;;;;;;;;;5535451;25;20316;-81
2024/04/21 02:18:53;;;;;;;5.72;5.32;;;;;;;;;;5569489;25;20893;-81
2024/04/21 02:21:20;;;;;;;5.75;5.35;;;;;;;;;;5574911;25;20305;-81
2024/04/21 02:23:47;;;;;;;5.80;5.40;;;;;;;;;;5575024;25;20316;-81
2024/04/21 02:26:13;;;;;;;5.30;5.00;;;;;;;;;;5574775;25;20715;-81
2024/04/21 02:28:39;;;;;;;4.93;4.63;;;;;;;;;;5574669;25;20393;-81
2024/04/21 02:31:06;;;;;;;4.93;4.55;;;;;;;;;;5574099;25;20645;-81
2024/04/21 02:33:32;;;;;;;5.43;4.93;;;;;;;;;;5574968;25;20781;-81
2024/04/21 02:35:58;;;;;;;5.30;5.00;;;;;;;;;;5574491;25;20396;-81
2024/04/21 02:38:24;;;;;;;5.50;5.15;;;;;;;;;;5574533;25;20321;-81
2024/04/21 02:40:50;;;;;;;5.53;5.13;;;;;;;;;;5574738;25;20434;-81
2024/04/21 02:43:17;;;;;;;5.53;5.13;;;;;;;;;;5574143;25;20337;-81
2024/04/21 02:45:43;;;;;;;5.57;5.18;;;;;;;;;;5575008;25;20727;-81
2024/04/21 02:48:09;;;;;;;5.07;4.78;;;;;;;;;;5574516;25;20313;-81
2024/04/21 02:50:35;;;;;;;5.00;4.60;;;;;;;;;;5574301;25;20369;-81
2024/04/21 02:53:01;;;;;;;5.22;4.93;;;;;;;;;;5574480;25;20317;-81
2024/04/21 02:55:27;;;;;;;5.63;5.22;;;;;;;;;;5574016;25;20383;-81
2024/04/21 02:57:53;;;;;;;5.70;5.30;;;;;;;;;;5574094;25;20317;-81
2024/04/21 03:00:20;;;;;;;5.20;4.80;;;;;;;;;;5574137;25;20332;-81
2024/04/21 03:02:47;;;;;;;5.32;5.03;;;;;;;;;;5574217;25;20833;-81
2024/04/21 03:05:13;;;;;;;4.68;4.38;;;;;;;;;;5574257;25;20325;-81
2024/04/21 03:07:39;;;;;;;4.55;4.25;;;;;;;;;;5574043;25;20758;-81
2024/04/21 03:10:05;;;;;;;4.80;4.50;;;;;;;;;;5574090;25;20374;-81
2024/04/21 03:12:31;;;;;;;4.78;4.47;;;;;;;;;;5573681;25;20362;-81
2024/04/21 03:14:57;;;;;;;4.72;4.43;;;;;;;;;;5574585;25;20325;-81
2024/04/21 03:17:23;;;;;;;5.07;4.78;;;;;;;;;;5573259;25;21137;-81
2024/04/21 03:19:49;;;;;;;5.38;4.97;;;;;;;;;;5537740;25;20401;-80
2024/04/21 03:22:15;;;;;;;5.80;5.40;;;;;;;;;;5535918;26;20351;-80
2024/04/21 03:24:41;;;;;;;5.43;5.03;;;;;;;;;;5536710;26;20734;-80
2024/04/21 03:27:07;;;;;;;5.00;4.70;;;;;;;;;;5537061;26;20356;-81
2024/04/21 03:29:33;;;;;;;5.38;5.07;;;;;;;;;;5535751;26;20433;-81
2024/04/21 03:31:59;;;;;;;5.10;4.80;;;;;;;;;;5536615;26;20340;-81
2024/04/21 03:34:26;;;;;;;5.10;4.70;;;;;;;;;;5536325;26;20782;-81
2024/04/21 03:36:52;;;;;;;6.40;5.90;;;;;;;;;;5536322;26;20356;-81
2024/04/21 03:39:18;;;;;;;7.82;7.22;;;;;;;;;;5535952;26;20327;-81
2024/04/21 03:41:47;;;;;;;7.47;6.88;;;;;;;;;;5536145;26;20324;-81
2024/04/21 03:44:13;;;;;;;7.40;6.80;;;;;;;;;;5536046;26;20347;-81
2024/04/21 03:46:39;;;;;;;7.05;6.55;;;;;;;;;;5535977;25;20360;-81
2024/04/21 03:49:05;;;;;;;7.03;6.53;;;;;;;;;;5540896;25;20328;-81
2024/04/21 03:51:31;;;;;;;7.20;6.53;;;;;;;;;;5535647;25;20320;-81
2024/04/21 03:53:57;;;;;;;6.93;6.43;;;;;;;;;;5536404;25;20343;-81
2024/04/21 03:56:23;;;;;;;7.07;6.57;;;;;;;;;;5536277;25;20443;-81
2024/04/21 03:58:49;;;;;;;7.88;7.28;;;;;;;;;;5535843;25;20331;-81
2024/04/21 04:01:15;;;;;;;8.20;7.50;;;;;;;;;;5535273;25;20409;-81
2024/04/21 04:03:41;;;;;;;8.50;7.70;;;;;;;;;;5535886;25;20356;-81
2024/04/21 04:06:10;;;;;;;7.97;7.38;;;;;;;;;;5541506;25;20336;-81
2024/04/21 04:08:36;;;;;;;7.88;7.18;;;;;;;;;;5572583;25;20361;-81
2024/04/21 04:11:02;;;;;;;8.52;7.82;;;;;;;;;;5572505;25;20358;-81
2024/04/21 04:13:28;;;;;;;8.30;7.60;;;;;;;;;;5572960;25;20333;-81
2024/04/21 04:15:54;;;;;;;8.20;7.50;;;;;;;;;;5572954;25;21282;-81
2024/04/21 04:18:20;;;;;;;8.67;8.03;;;;;;;;;;5572407;25;20470;-80
2024/04/21 04:20:46;;;;;;;8.30;7.70;;;;;;;;;;5539561;25;20887;-81
2024/04/21 04:23:12;;;;;;;8.98;8.27;;;;;;;;;;5534467;26;20324;-80
2024/04/21 04:25:38;;;;;;;9.15;8.38;;;;;;;;;;5534746;26;20328;-80
2024/04/21 04:28:04;;;;;;;8.63;8.02;;;;;;;;;;5535121;26;20331;-80
2024/04/21 04:30:30;;;;;;;8.68;7.97;;;;;;;;;;5534842;26;20366;-80
2024/04/21 04:32:56;;;;;;;8.48;7.65;;;;;;;;;;5534445;26;20327;-80
2024/04/21 04:35:22;;;;;;;8.70;7.97;;;;;;;;;;5534873;26;20704;-80
2024/04/21 04:37:48;;;;;;;8.73;8.03;;;;;;;;;;5534937;26;20514;-80
2024/04/21 04:40:14;;;;;;;8.90;8.20;;;;;;;;;;5534412;26;20331;-81
2024/04/21 04:42:40;;;;;;;8.23;7.63;;;;;;;;;;5533485;26;20753;-81
2024/04/21 04:45:06;;;;;;;8.27;7.50;;;;;;;;;;5534435;26;20324;-81
2024/04/21 04:47:32;;;;;;;8.00;7.40;;;;;;;;;;5535516;26;20784;-80
2024/04/21 04:49:58;;;;;;;7.35;6.75;;;;;;;;;;5534777;26;21008;-80
2024/04/21 04:52:24;;;;;;;7.20;6.60;;;;;;;;;;5535003;26;20320;-80
2024/04/21 04:54:50;;;;;;;6.20;5.70;;;;;;;;;;5534782;26;20368;-82
2024/04/21 04:57:16;;;;;;;5.93;5.43;;;;;;;;;;5534939;26;20327;-81
2024/04/21 04:59:42;;;;;;;5.93;5.43;;;;;;;;;;5535578;26;20808;-81
2024/04/21 05:02:08;;;;;;;5.22;4.82;;;;;;;;;;5535271;26;20401;-81
2024/04/21 05:04:34;;;;;;;5.93;5.35;;;;;;;;;;5535180;26;20315;-81
2024/04/21 05:07:00;;;;;;;6.10;5.60;;;;;;;;;;5534471;26;20508;-81
2024/04/21 05:09:26;;;;;;;5.78;5.30;;;;;;;;;;5534448;26;20335;-81
2024/04/21 05:11:52;;;;;;;6.20;5.70;;;;;;;;;;5534123;26;20375;-81
2024/04/21 05:14:18;;;;;;;5.60;5.20;;;;;;;;;;5531652;26;20437;-81
2024/04/21 05:16:45;;;;;;;5.90;5.50;;;;;;;;;;5532261;26;20323;-81
2024/04/21 05:19:11;;;;;;;5.70;5.30;;;;;;;;;;5530450;26;20435;-81
2024/04/21 05:21:37;;;;;;;6.82;6.32;;;;;;;;;;5530297;26;20324;-81
2024/04/21 05:24:03;;;;;;;7.05;6.45;;;;;;;;;;5560475;25;21258;-81
2024/04/21 05:26:29;;;;;;;7.40;6.80;;;;;;;;;;5567535;25;20366;-82
2024/04/21 05:28:55;;;;;;;7.67;7.07;;;;;;;;;;5569379;25;20860;-81
2024/04/21 05:31:21;;;;;;;8.13;7.43;;;;;;;;;;5569398;25;20420;-82
2024/04/21 05:33:47;;;;;;;8.02;7.43;;;;;;;;;;5569157;25;20321;-81
2024/04/21 05:36:14;;;;;;;8.57;7.88;;;;;;;;;;5567885;25;20376;-81
2024/04/21 05:38:40;;;;;;;9.32;8.48;;;;;;;;;;5570709;25;20321;-82
2024/04/21 05:41:06;;;;;;;8.48;7.88;;;;;;;;;;5570127;25;20325;-82
2024/04/21 05:43:32;;;;;;;8.60;7.90;;;;;;;;;;5569244;25;20313;-81
2024/04/21 05:46:01;;;;;;;8.50;7.80;;;;;;;;;;5568770;25;20321;-81
2024/04/21 05:48:27;;;;;;;8.65;7.97;;;;;;;;;;5570501;25;20317;-81
2024/04/21 05:50:53;;;;;;;8.50;7.80;;;;;;;;;;5570130;25;20904;-81
2024/04/21 05:53:19;;;;;;;8.63;7.93;;;;;;;;;;5547019;25;20350;-81
2024/04/21 05:55:48;;;;;;;7.70;7.00;;;;;;;;;;5532265;26;20358;-82
2024/04/21 05:58:14;;;;;;;7.20;6.60;;;;;;;;;;5540706;25;20399;-81
2024/04/21 06:00:40;;;;;;;7.45;6.85;;;;;;;;;;5572207;25;20317;-81
2024/04/21 06:03:06;;;;;;;6.80;6.30;;;;;;;;;;5571607;25;20372;-81
2024/04/21 06:05:32;;;;;;;7.22;6.63;;;;;;;;;;5572612;25;20320;-81
2024/04/21 06:07:59;;;;;;;6.20;5.70;;;;;;;;;;5573301;25;20310;-81
2024/04/21 06:10:25;;;;;;;6.38;5.80;;;;;;;;;;5573022;25;20336;-81
2024/04/21 06:12:54;;;;;;;6.00;5.43;;;;;;;;;;5572171;25;20402;-82
2024/04/21 06:15:20;;;;;;;5.57;5.18;;;;;;;;;;5573444;25;20349;-82
2024/04/21 06:17:46;;;;;;;5.85;5.35;;;;;;;;;;5574421;25;20390;-82
2024/04/21 06:20:12;;;;;;;5.43;4.95;;;;;;;;;;5572001;25;20806;-82
2024/04/21 06:22:38;;;;;;;5.22;4.72;;;;;;;;;;5569315;25;20349;-82
2024/04/21 06:25:04;;;;;;;4.90;4.50;;;;;;;;;;5533886;25;20336;-82
2024/04/21 06:27:31;;;;;;;5.37;4.97;;;;;;;;;;5533619;25;20481;-82
2024/04/21 06:29:58;;;;;;;5.90;5.40;;;;;;;;;;5534158;25;20419;-82
2024/04/21 06:32:24;;;;;;;5.63;5.13;;;;;;;;;;5534941;25;20678;-82
2024/04/21 06:34:50;;;;;;;5.63;5.20;;;;;;;;;;5533866;25;20324;-82
2024/04/21 06:37:16;;;;;;;5.45;5.05;;;;;;;;;;5533198;25;20324;-82
2024/04/21 06:39:42;;;;;;;6.28;5.78;;;;;;;;;;5533042;25;20800;-82
2024/04/21 06:42:08;;;;;;;6.75;6.15;;;;;;;;;;5532576;25;20402;-82
2024/04/21 06:44:34;;;;;;;6.50;6.00;;;;;;;;;;5532697;25;20316;-82
2024/04/21 06:47:00;;;;;;;6.43;5.78;;;;;;;;;;5533439;25;20365;-82
2024/04/21 06:49:28;;;;;;;6.27;5.77;;;;;;;;;;5532333;25;20327;-82
2024/04/21 06:51:54;;;;;;;7.10;6.40;;;;;;;;;;5533556;25;20430;-82
2024/04/21 06:54:20;;;;;;;6.40;5.85;;;;;;;;;;5532206;25;20332;-81
2024/04/21 06:56:47;;;;;;;5.82;5.32;;;;;;;;;;5533173;25;20344;-81
2024/04/21 06:59:13;;;;;;;6.30;5.70;;;;;;;;;;5532974;25;20359;-82
2024/04/21 07:01:39;;;;;;;6.73;6.03;;;;;;;;;;5533890;25;20344;-82
2024/04/21 07:04:05;;;;;;;6.07;5.47;;;;;;;;;;5532949;25;20324;-81
2024/04/21 07:06:31;;;;;;;5.15;4.75;;;;;;;;;;5537080;25;20356;-81
2024/04/21 07:08:57;;;;;;;7.13;5.70;;;;;;;;;;5538021;25;20360;-82
2024/04/21 07:11:23;;;;;;;7.68;5.65;;;;;;;;;;5537508;25;21061;-82
2024/04/21 07:13:49;;;;;;;5.97;5.00;;;;;;;;;;5538355;25;20327;-82
2024/04/21 07:16:15;;;;;;;6.18;5.60;;;;;;;;;;5537801;25;20373;-82
2024/04/21 07:18:41;;;;;;;6.90;6.20;;;;;;;;;;5536015;25;20780;-82
2024/04/21 07:21:07;;;;;;;5.05;4.45;;;;;;;;;;5536871;25;20320;-82
2024/04/21 07:23:33;;;;;;;6.13;5.10;;;;;;;;;;5538130;25;20436;-82
2024/04/21 07:25:59;;;;;;;6.13;5.18;;;;;;;;;;5539813;25;20352;-81
2024/04/21 07:28:25;;;;;;;5.53;4.70;;;;;;;;;;5537691;25;20364;-82
2024/04/21 07:30:52;;;;;;;5.22;4.60;;;;;;;;;;5538642;25;20351;-82
2024/04/21 07:33:18;;;;;;;5.03;4.55;;;;;;;;;;5538140;25;20319;-82
2024/04/21 07:35:44;;;;;;;4.45;4.03;;;;;;;;;;5538431;25;20356;-81
2024/04/21 07:38:10;;;;;;;4.70;4.22;;;;;;;;;;5536278;26;20691;-82
2024/04/21 07:40:36;;;;;;;4.88;4.35;;;;;;;;;;5538635;25;21031;-82
2024/04/21 07:43:02;;;;;;;3.63;3.33;;;;;;;;;;5538876;25;20320;-82
2024/04/21 07:45:28;;;;;;;3.83;3.53;;;;;;;;;;5538326;25;20796;-82
2024/04/21 07:47:54;;;;;;;3.42;3.05;;;;;;;;;;5538807;25;20315;-82
2024/04/21 07:50:21;;;;;;;3.10;2.80;;;;;;;;;;5533835;25;20332;-80
2024/04/21 07:52:47;;;;;;;2.58;2.38;;;;;;;;;;5532166;25;20354;-80
2024/04/21 07:55:13;;;;;;;3.03;2.72;;;;;;;;;;5531988;25;20320;-80
2024/04/21 07:57:39;;;;;;;1.40;1.30;;;;;;;;;;5535471;25;20344;-80
2024/04/21 08:00:05;;;;;;;2.28;2.13;;;;;;;;;;5534172;25;20868;-80
2024/04/21 08:02:31;;;;;;;1.70;1.60;;;;;;;;;;5538430;25;20319;-81
2024/04/21 08:04:57;;;;;;;0.90;0.90;;;;;;;;;;5534032;25;20749;-80
2024/04/21 08:07:23;;;;;;;0.95;0.95;;;;;;;;;;5567234;25;20313;-80
2024/04/21 08:09:49;;;;;;;1.92;1.83;;;;;;;;;;5573246;25;20321;-80
2024/04/21 08:12:15;;;;;;;2.20;2.00;;;;;;;;;;5574803;25;20384;-80
2024/04/21 08:14:41;;;;;;;1.83;1.73;;;;;;;;;;5574004;25;20317;-80
2024/04/21 08:17:07;;;;;;;1.63;1.53;;;;;;;;;;5574730;25;20325;-80
2024/04/21 08:19:33;;;;;;;0.80;0.70;;;;;;;;;;5575561;25;20421;-80
2024/04/21 08:21:59;;;;;;;0.60;0.50;;;;;;;;;;5576998;25;20801;-80
2024/04/21 08:24:25;;;;;;;1.00;0.70;;;;;;;;;;5575506;25;20325;-80
2024/04/21 08:26:54;;;;;;;0.88;0.80;;;;;;;;;;5570004;25;20324;-80
2024/04/21 08:29:22;;;;;;;0.63;0.63;;;;;;;;;;5575284;25;20321;-80
2024/04/21 08:31:49;;;;;;;0.82;0.60;;;;;;;;;;5575781;25;20313;-80
2024/04/21 08:34:15;;;;;;;0.65;0.50;;;;;;;;;;5575311;25;20378;-80
2024/04/21 08:36:41;;;;;;;0.60;0.60;;;;;;;;;;5575119;25;20352;-80
2024/04/21 08:39:07;;;;;;;1.00;0.70;;;;;;;;;;5574526;25;20362;-80
2024/04/21 08:41:39;;;;;;;0.80;0.50;;;;;;;;;;5575227;25;20696;-80
2024/04/21 08:44:07;;;;;;;0.50;0.50;;;;;;;;;;5574087;25;20396;-79
2024/04/21 08:46:33;;;;;;;0.70;0.70;;;;;;;;;;5573479;25;20933;-80
2024/04/21 08:48:59;;;;;;;0.68;0.60;;;;;;;;;;5575130;25;20808;-80
2024/04/21 08:51:25;;;;;;;0.70;0.70;;;;;;;;;;5575468;25;20309;-80
2024/04/21 08:53:51;;;;;;;1.42;0.60;;;;;;;;;;5574717;25;20340;-79
2024/04/21 08:56:18;;;;;;;1.50;0.93;;;;;;;;;;5573708;25;20313;-79
2024/04/21 08:58:48;;;;;;;0.95;0.93;;;;;;;;;;5571343;25;20897;-79
2024/04/21 09:01:14;;;;;;;0.93;0.82;;;;;;;;;;5572281;25;20409;-79
2024/04/21 09:03:42;;;;;;;1.70;1.10;;;;;;;;;;5571562;25;20317;-79
2024/04/21 09:06:09;;;;;;;1.17;0.90;;;;;;;;;;5572741;25;20313;-79
2024/04/21 09:08:35;;;;;;;1.13;0.90;;;;;;;;;;5572124;25;20337;-80
2024/04/21 09:11:01;;;;;;;1.90;1.53;;;;;;;;;;5572556;25;20434;-79
2024/04/21 09:13:27;;;;;;;1.50;1.40;;;;;;;;;;5573475;25;20309;-79
2024/04/21 09:15:53;;;;;;;1.52;1.13;;;;;;;;;;5572304;25;20313;-80
2024/04/21 09:18:19;;;;;;;1.40;0.90;;;;;;;;;;5573402;25;20309;-80
2024/04/21 09:20:46;;;;;;;1.00;0.80;;;;;;;;;;5574227;25;20297;-80
2024/04/21 09:23:12;;;;;;;1.50;1.20;;;;;;;;;;5568921;25;20416;-79
2024/04/21 09:25:37;;;;;;;1.70;0.80;;;;;;;;;;5567825;25;20329;-80
2024/04/21 09:28:04;;;;;;;1.67;0.80;;;;;;;;;;5566706;25;20348;-80
2024/04/21 09:30:30;;;;;;;1.20;0.90;;;;;;;;;;5534520;25;20666;-80
2024/04/21 09:32:56;;;;;;;1.42;1.00;;;;;;;;;;5499818;26;20312;-81
2024/04/21 09:35:22;;;;;;;1.83;1.00;;;;;;;;;;5533100;26;20320;-80
2024/04/21 09:37:48;;;;;;;2.30;1.17;;;;;;;;;;5531363;26;20311;-80
2024/04/21 09:40:14;;;;;;;1.67;0.73;;;;;;;;;;5532942;26;20363;-80
2024/04/21 09:42:41;;;;;;;1.80;0.93;;;;;;;;;;5532046;26;20315;-80
2024/04/21 09:45:10;;;;;;;2.60;1.20;;;;;;;;;;5532834;26;20397;-81
2024/04/21 09:47:37;;;;;;;1.63;0.88;;;;;;;;;;5502227;26;20312;-81
2024/04/21 09:50:03;;;;;;;2.08;1.08;;;;;;;;;;5534294;26;20328;-81
2024/04/21 09:52:32;;;;;;;1.48;1.25;;;;;;;;;;5531860;26;20359;-80
2024/04/21 09:54:58;;;;;;;1.77;1.33;;;;;;;;;;5533002;26;20921;-80
2024/04/21 09:57:25;;;;;;;2.70;1.50;;;;;;;;;;5532225;26;20723;-80
2024/04/21 09:59:56;;;;;;;2.33;1.95;;;;;;;;;;5533605;26;20358;-81
2024/04/21 10:02:25;;;;;;;2.33;1.60;;;;;;;;;;5555235;25;20408;-79
2024/04/21 10:05:02;;;;;;;2.13;1.42;;;;;;;;;;5572314;25;20351;-79
2024/04/21 10:07:33;;;;;;;2.08;1.45;;;;;;;;;;5572700;25;20919;-79
2024/04/21 10:09:59;;;;;;;1.65;1.38;;;;;;;;;;5564220;25;20414;-79
2024/04/21 10:12:25;;;;;;;1.60;1.50;;;;;;;;;;5534681;26;20327;-80
2024/04/21 10:14:52;;;;;;;2.25;1.40;;;;;;;;;;5534634;26;20316;-79
2024/04/21 10:17:18;;;;;;;1.63;1.20;;;;;;;;;;5535369;26;20801;-79
2024/04/21 10:19:44;;;;;;;1.30;1.10;;;;;;;;;;5534326;26;20309;-79
2024/04/21 10:22:10;;;;;;;1.88;1.40;;;;;;;;;;5535026;26;20360;-80
2024/04/21 10:24:37;;;;;;;2.97;1.30;;;;;;;;;;5534191;26;20320;-79
2024/04/21 10:27:03;;;;;;;1.35;1.25;;;;;;;;;;5533802;26;20315;-79
2024/04/21 10:29:32;;;;;;;1.90;1.20;;;;;;;;;;5534268;25;20720;-80
2024/04/21 10:32:11;;;;;;;1.42;1.08;;;;;;;;;;5535877;25;20360;-79
2024/04/21 10:34:48;;;;;;;2.25;1.20;;;;;;;;;;5534020;26;20361;-80
2024/04/21 10:37:14;;;;;;;1.88;1.10;;;;;;;;;;5534203;26;20353;-80
2024/04/21 10:39:40;;;;;;;1.98;1.10;;;;;;;;;;5535173;26;20369;-79
2024/04/21 10:42:09;;;;;;;1.42;1.00;;;;;;;;;;5536943;26;20332;-80
2024/04/21 10:44:35;;;;;;;2.37;1.17;;;;;;;;;;5533328;26;20571;-80
2024/04/21 10:47:01;;;;;;;1.45;1.00;;;;;;;;;;5533823;26;20430;-80
2024/04/21 10:49:27;;;;;;;1.63;1.00;;;;;;;;;;5534358;26;20340;-81
2024/04/21 10:51:53;;;;;;;2.03;1.00;;;;;;;;;;5535654;26;20315;-80
2024/04/21 10:54:19;;;;;;;2.10;1.40;;;;;;;;;;5535056;26;20383;-80
2024/04/21 10:56:45;;;;;;;5.68;4.32;;;;;;;;;;5534815;26;20315;-81
2024/04/21 10:59:11;;;;;;;1.33;1.23;;;;;;;;;;5533529;26;20323;-80
2024/04/21 11:01:37;;;;;;;1.70;1.10;;;;;;;;;;5531041;26;20545;-82
2024/04/21 11:04:04;;;;;;;2.35;1.35;;;;;;;;;;5533355;26;20418;-80
2024/04/21 11:06:33;;;;;;;2.08;1.48;;;;;;;;;;5533087;26;20428;-80
2024/04/21 11:08:59;;;;;;;1.45;1.08;;;;;;;;;;5533687;26;20429;-80
2024/04/21 11:11:26;;;;;;;1.48;1.33;;;;;;;;;;5534788;26;20327;-80
2024/04/21 11:13:52;;;;;;;1.80;1.20;;;;;;;;;;5534898;26;20315;-80
2024/04/21 11:16:18;;;;;;;1.00;0.90;;;;;;;;;;5535390;26;20315;-80
2024/04/21 11:18:44;;;;;;;1.20;0.73;;;;;;;;;;5534489;26;20676;-80
2024/04/21 11:21:10;;;;;;;1.27;0.95;;;;;;;;;;5535233;26;20364;-80
2024/04/21 11:23:39;;;;;;;1.33;0.90;;;;;;;;;;5534451;26;20428;-80
2024/04/21 11:26:06;;;;;;;0.90;0.73;;;;;;;;;;5534924;26;20329;-80
2024/04/21 11:28:32;;;;;;;0.63;0.50;;;;;;;;;;5534793;26;20486;-80
2024/04/21 11:31:04;;;;;;;1.38;0.80;;;;;;;;;;5535378;25;20837;-80
2024/04/21 11:33:31;;;;;;;1.67;1.00;;;;;;;;;;5572716;25;20354;-80
2024/04/21 11:35:57;;;;;;;1.15;0.70;;;;;;;;;;5573117;25;20357;-80
2024/04/21 11:38:24;;;;;;;1.95;0.82;;;;;;;;;;5572221;25;20317;-80
2024/04/21 11:40:50;;;;;;;1.35;0.70;;;;;;;;;;5572582;25;20772;-80
2024/04/21 11:43:18;;;;;;;1.15;0.75;;;;;;;;;;5568698;25;20389;-79
2024/04/21 11:45:44;;;;;;;0.98;0.70;;;;;;;;;;5572001;25;20735;-80
2024/04/21 11:48:10;;;;;;;1.30;0.55;;;;;;;;;;5568712;25;20401;-80
2024/04/21 11:50:37;;;;;;;1.05;0.60;;;;;;;;;;5534054;25;20317;-79
2024/04/21 11:53:06;;;;;;;1.10;0.77;;;;;;;;;;5568753;25;20403;-80
2024/04/21 11:55:33;;;;;;;1.88;0.82;;;;;;;;;;5569444;25;20383;-79
2024/04/21 11:57:59;;;;;;;1.05;0.77;;;;;;;;;;5567127;25;20383;-80
2024/04/21 12:00:25;;;;;;;1.17;0.80;;;;;;;;;;5569986;25;20321;-80
2024/04/21 12:02:51;;;;;;;3.03;2.30;;;;;;;;;;5571185;25;20333;-80
2024/04/21 12:05:17;;;;;;;1.48;0.90;;;;;;;;;;5568964;25;20363;-81
2024/04/21 12:07:43;;;;;;;1.38;0.85;;;;;;;;;;5547986;25;20859;-82
2024/04/21 12:10:10;;;;;;;4.03;3.17;;;;;;;;;;5530788;26;20327;-80
2024/04/21 12:12:36;;;;;;;1.47;1.03;;;;;;;;;;5528758;25;20320;-81
2024/04/21 12:15:02;;;;;;;1.02;0.90;;;;;;;;;;5531675;25;20765;-81
2024/04/21 12:17:28;;;;;;;1.20;0.80;;;;;;;;;;5531730;25;20336;-82
2024/04/21 12:19:54;;;;;;;1.20;0.80;;;;;;;;;;5533651;25;20353;-81
2024/04/21 12:22:20;;;;;;;1.10;1.00;;;;;;;;;;5533217;25;20315;-82
2024/04/21 12:24:46;;;;;;;1.65;0.60;;;;;;;;;;5530335;25;20327;-83
2024/04/21 12:27:12;;;;;;;1.15;0.90;;;;;;;;;;5531044;25;20402;-82
2024/04/21 12:29:38;;;;;;;1.90;1.33;;;;;;;;;;5531093;25;20688;-82
2024/04/21 12:32:04;;;;;;;1.00;0.70;;;;;;;;;;5529121;25;20440;-81
2024/04/21 12:34:30;;;;;;;0.90;0.70;;;;;;;;;;5532069;25;20360;-82
2024/04/21 12:36:56;;;;;;;1.40;0.90;;;;;;;;;;5530554;25;20394;-82
2024/04/21 12:39:23;;;;;;;1.85;1.10;;;;;;;;;;5531462;25;20348;-83
2024/04/21 12:41:49;;;;;;;1.30;1.20;;;;;;;;;;5529077;25;20405;-82
2024/04/21 12:44:15;;;;;;;1.40;1.02;;;;;;;;;;5529446;26;20335;-83
2024/04/21 12:46:41;;;;;;;1.35;0.90;;;;;;;;;;5527941;26;20426;-81
2024/04/21 12:49:07;;;;;;;1.07;0.97;;;;;;;;;;5529863;25;20375;-81
2024/04/21 12:51:33;;;;;;;1.55;0.90;;;;;;;;;;5529135;25;20363;-81
2024/04/21 12:53:59;;;;;;;1.37;0.73;;;;;;;;;;5528565;25;20385;-81
2024/04/21 12:56:25;;;;;;;1.23;0.80;;;;;;;;;;5529318;25;20324;-81
2024/04/21 12:58:51;;;;;;;5.00;4.20;;;;;;;;;;5529792;25;20820;-80
2024/04/21 13:01:17;;;;;;;1.13;0.88;;;;;;;;;;5529612;25;20308;-81
2024/04/21 13:03:43;;;;;;;0.88;0.60;;;;;;;;;;5528024;25;20375;-80
2024/04/21 13:06:09;;;;;;;1.13;0.90;;;;;;;;;;5527999;25;20323;-80
2024/04/21 13:08:35;;;;;;;0.73;0.60;;;;;;;;;;5528127;25;20320;-80
2024/04/21 13:11:01;;;;;;;1.40;0.77;;;;;;;;;;5529807;25;20503;-80
2024/04/21 13:13:27;;;;;;;1.10;0.60;;;;;;;;;;5529195;25;20868;-80
2024/04/21 13:15:53;;;;;;;1.13;0.93;;;;;;;;;;5526956;25;20324;-80
2024/04/21 13:18:19;;;;;;;1.08;0.77;;;;;;;;;;5528086;25;20422;-80
2024/04/21 13:20:45;;;;;;;1.13;0.65;;;;;;;;;;5528851;25;20397;-81
2024/04/21 13:23:11;;;;;;;0.70;0.68;;;;;;;;;;5528530;25;20312;-81
2024/04/21 13:25:37;;;;;;;2.58;1.75;;;;;;;;;;5528511;25;20402;-81
2024/04/21 13:28:04;;;;;;;1.43;1.30;;;;;;;;;;5527479;25;20394;-81
2024/04/21 13:30:32;;;;;;;1.55;1.00;;;;;;;;;;5528020;25;20335;-81
2024/04/21 13:32:58;;;;;;;2.03;1.17;;;;;;;;;;5530329;25;20352;-80
2024/04/21 13:35:24;;;;;;;1.47;1.10;;;;;;;;;;5532978;25;20769;-81
2024/04/21 13:37:50;;;;;;;2.58;1.60;;;;;;;;;;5531108;25;20324;-81
2024/04/21 13:40:16;;;;;;;3.45;1.50;;;;;;;;;;5531443;25;20356;-82
2024/04/21 13:42:42;;;;;;;2.45;1.25;;;;;;;;;;5529473;25;20344;-81
2024/04/21 13:45:08;;;;;;;2.15;1.23;;;;;;;;;;5530533;25;20331;-82
2024/04/21 13:47:34;;;;;;;2.30;1.40;;;;;;;;;;5531919;25;20435;-82
2024/04/21 13:50:00;;;;;;;1.10;1.00;;;;;;;;;;5526356;25;20440;-80
2024/04/21 13:52:26;;;;;;;1.60;1.30;;;;;;;;;;5525575;25;20324;-81
2024/04/21 13:54:52;;;;;;;2.42;1.45;;;;;;;;;;5527530;25;20364;-81
2024/04/21 13:57:18;;;;;;;1.38;1.27;;;;;;;;;;5528247;25;20320;-81
2024/04/21 13:59:44;;;;;;;1.30;1.20;;;;;;;;;;5528541;25;20323;-81
2024/04/21 14:02:12;;;;;;;1.50;1.40;;;;;;;;;;5527632;25;20421;-81
2024/04/21 14:04:39;;;;;;;1.40;1.30;;;;;;;;;;5533475;25;20426;-81
2024/04/21 14:07:05;;;;;;;1.70;1.30;;;;;;;;;;5542688;25;20415;-81
2024/04/21 14:09:31;;;;;;;2.23;1.20;;;;;;;;;;5565823;25;20329;-81
2024/04/21 14:11:57;;;;;;;2.95;1.20;;;;;;;;;;5533278;25;20309;-81
2024/04/21 14:14:23;;;;;;;2.78;1.60;;;;;;;;;;5567915;25;20380;-81
2024/04/21 14:16:49;;;;;;;1.42;1.20;;;;;;;;;;5569928;25;20313;-81
2024/04/21 14:19:15;;;;;;;1.40;1.30;;;;;;;;;;5569395;25;20372;-81
2024/04/21 14:21:41;;;;;;;1.83;1.08;;;;;;;;;;5567374;25;20899;-80
2024/04/21 14:24:07;;;;;;;1.20;0.90;;;;;;;;;;5565120;25;20305;-80
2024/04/21 14:26:33;;;;;;;1.13;1.02;;;;;;;;;;5567263;25;20315;-80
2024/04/21 14:28:59;;;;;;;2.22;1.33;;;;;;;;;;5568836;25;20328;-81
2024/04/21 14:31:25;;;;;;;0.98;0.70;;;;;;;;;;5567973;25;20313;-81
2024/04/21 14:33:51;;;;;;;4.75;4.45;;;;;;;;;;5568610;25;20321;-81
2024/04/21 14:36:18;;;;;;;2.17;1.35;;;;;;;;;;5562088;25;20332;-80
2024/04/21 14:38:44;;;;;;;1.98;1.88;;;;;;;;;;5530541;26;20319;-80